MWJ weather

Matthews Ridge Airport
Matthews Ridge, Barima-Waini, Guyana

Public forecast

Using degrees Celsius for public forecast. Weather courtesy of forecast.io.

Closest aviation weather report (METAR) to Matthews Ridge Airport

Report is more than 6 hours old.

Closest report is Mabaruma Airport, 49.0 nm (90.7 km) NNE. Retrieved 2019/10/17 15:00 UTC (9 hours ago):

SYMB 171500Z 36010KT 9999 SCT024 31/25 Q//// NOSIG

Closest aviation forecast (TAF) to Matthews Ridge Airport

Forecast is more than 6 hours old.

Closest forecast is Mabaruma Airport, 49.0 nm (90.7 km) NNE. Retrieved 2019/10/17 12:00 UTC (12 hours ago):

TAF SYMB 171100Z 1712/1723 07012KT 9999 BKN022 TEMPO 1715/1722 5000 SHRA FEW018CB